createdAt,value
2019-02-24T00:00:04.597Z,101952.34
2019-02-24T00:02:33.727Z,101950.38
2019-02-24T00:05:03.679Z,101958.52
2019-02-24T00:07:32.827Z,101956.22
2019-02-24T00:10:01.934Z,101959.88
2019-02-24T00:12:31.085Z,101952.19
2019-02-24T00:15:00.332Z,101953.10
2019-02-24T00:17:29.428Z,101948.55
2019-02-24T00:19:58.555Z,101948.16
2019-02-24T00:22:27.689Z,101947.10
2019-02-24T00:24:56.826Z,101953.99
2019-02-24T00:27:25.962Z,101952.66
2019-02-24T00:29:55.090Z,101945.00
2019-02-24T00:32:24.270Z,101942.50
2019-02-24T00:34:53.373Z,101939.50
2019-02-24T00:37:22.504Z,101940.17
2019-02-24T00:39:51.619Z,101940.44
2019-02-24T00:42:20.773Z,101937.42
2019-02-24T00:44:49.903Z,101946.02
2019-02-24T00:47:19.042Z,101941.08
2019-02-24T00:49:48.167Z,101936.16
2019-02-24T00:52:17.308Z,101941.56
2019-02-24T00:54:46.460Z,101942.82
2019-02-24T00:57:15.588Z,101935.50
2019-02-24T00:59:44.701Z,101932.20
2019-02-24T01:02:13.843Z,101932.27
2019-02-24T01:04:42.971Z,101929.56
2019-02-24T01:07:12.118Z,101929.05
2019-02-24T01:09:41.268Z,101923.41
2019-02-24T01:12:10.388Z,101925.68
2019-02-24T01:14:40.416Z,101921.58
2019-02-24T01:17:09.518Z,101920.19
2019-02-24T01:19:38.726Z,101917.66
2019-02-24T01:22:07.855Z,101916.27
2019-02-24T01:24:36.995Z,101918.29
2019-02-24T01:27:06.126Z,101922.47
2019-02-24T01:29:35.336Z,101921.80
2019-02-24T01:32:04.458Z,101916.23
2019-02-24T01:34:33.601Z,101919.59
2019-02-24T01:37:02.722Z,101917.28
2019-02-24T01:39:31.863Z,101921.61
2019-02-24T01:42:00.990Z,101920.44
2019-02-24T01:44:30.127Z,101921.61
2019-02-24T01:46:59.265Z,101923.33
2019-02-24T01:49:28.421Z,101922.78
2019-02-24T01:51:57.555Z,101931.78
2019-02-24T01:54:26.708Z,101929.14
2019-02-24T01:56:55.832Z,101929.83
2019-02-24T01:59:24.979Z,101925.09
2019-02-24T02:01:54.146Z,101922.44
2019-02-24T02:04:23.281Z,101924.43
2019-02-24T02:06:52.403Z,101923.04
2019-02-24T02:09:21.545Z,101926.19
2019-02-24T02:11:50.731Z,101930.16
2019-02-24T02:14:19.912Z,101926.70
2019-02-24T02:16:49.056Z,101917.97
2019-02-24T02:19:18.195Z,101920.16
2019-02-24T02:21:47.357Z,101917.07
2019-02-24T02:24:16.486Z,101920.17
2019-02-24T02:26:45.635Z,101917.84
2019-02-24T02:29:14.758Z,101913.44
2019-02-24T02:31:43.902Z,101913.06
2019-02-24T02:34:13.021Z,101916.03
2019-02-24T02:36:42.163Z,101917.56
2019-02-24T02:39:11.278Z,101912.90
2019-02-24T02:41:40.413Z,101914.64
2019-02-24T02:44:09.543Z,101914.27
2019-02-24T02:46:38.692Z,101911.98
2019-02-24T02:49:07.894Z,101904.89
2019-02-24T02:51:37.037Z,101904.63
2019-02-24T02:54:06.158Z,101910.23
2019-02-24T02:56:35.302Z,101909.44
2019-02-24T02:59:04.435Z,101912.37
2019-02-24T03:01:33.563Z,101906.41
2019-02-24T03:04:02.697Z,101909.23
2019-02-24T03:06:33.478Z,101909.97
2019-02-24T03:09:02.598Z,101908.51
2019-02-24T03:11:31.763Z,101915.23
2019-02-24T03:14:00.868Z,101910.27
2019-02-24T03:16:30.051Z,101912.97
2019-02-24T03:18:59.174Z,101921.01
2019-02-24T03:21:35.602Z,101915.30
2019-02-24T03:24:04.726Z,101922.13
2019-02-24T03:26:33.870Z,101913.30
2019-02-24T03:29:04.370Z,101916.91
2019-02-24T03:31:33.624Z,101913.41
2019-02-24T03:34:02.758Z,101913.44
2019-02-24T03:36:31.878Z,101917.08
2019-02-24T03:39:01.023Z,101910.17
2019-02-24T03:41:30.140Z,101910.89
2019-02-24T03:43:59.284Z,101912.48
2019-02-24T03:46:28.417Z,101912.38
2019-02-24T03:48:57.594Z,101918.44
2019-02-24T03:51:26.699Z,101915.56
2019-02-24T03:53:55.842Z,101916.55
2019-02-24T03:56:25.040Z,101915.79
2019-02-24T03:58:54.177Z,101913.03
2019-02-24T04:01:23.324Z,101913.30
2019-02-24T04:03:52.480Z,101917.63
2019-02-24T04:06:21.582Z,101914.73
2019-02-24T04:08:50.735Z,101908.28
2019-02-24T04:11:19.871Z,101909.62
2019-02-24T04:13:49.009Z,101903.56
2019-02-24T04:16:18.146Z,101906.12
2019-02-24T04:18:47.278Z,101906.62
2019-02-24T04:21:16.401Z,101909.16
2019-02-24T04:23:45.547Z,101906.70
2019-02-24T04:26:14.662Z,101906.33
2019-02-24T04:28:43.855Z,101894.22
2019-02-24T04:31:12.999Z,101898.99
2019-02-24T04:33:42.133Z,101899.46
2019-02-24T04:36:11.345Z,101895.40
2019-02-24T04:38:40.489Z,101893.89
2019-02-24T04:41:09.634Z,101890.06
2019-02-24T04:43:38.751Z,101890.45
2019-02-24T04:46:07.892Z,101890.66
2019-02-24T04:48:37.012Z,101888.98
2019-02-24T04:51:06.139Z,101883.39
2019-02-24T04:53:35.254Z,101886.75
2019-02-24T04:56:04.394Z,101887.11
2019-02-24T04:58:33.537Z,101889.89
2019-02-24T05:01:02.677Z,101891.47
2019-02-24T05:03:31.788Z,101899.25
2019-02-24T05:06:00.949Z,101899.55
2019-02-24T05:08:30.075Z,101896.51
2019-02-24T05:10:59.203Z,101898.52
2019-02-24T05:13:28.329Z,101893.97
2019-02-24T05:15:57.474Z,101891.38
2019-02-24T05:18:26.588Z,101887.91
2019-02-24T05:20:55.733Z,101881.83
2019-02-24T05:23:24.883Z,101880.45
2019-02-24T05:25:53.999Z,101882.81
2019-02-24T05:28:23.132Z,101889.09
2019-02-24T05:30:53.152Z,101887.37
2019-02-24T05:33:22.274Z,101892.69
2019-02-24T05:35:51.430Z,101899.70
2019-02-24T05:38:20.560Z,101900.05
2019-02-24T05:40:49.677Z,101903.02
2019-02-24T05:43:21.723Z,101909.67
2019-02-24T05:45:50.836Z,101912.74
2019-02-24T05:48:19.985Z,101908.80
2019-02-24T05:50:49.112Z,101911.75
2019-02-24T05:53:18.253Z,101917.95
2019-02-24T05:55:47.379Z,101916.93
2019-02-24T05:58:16.519Z,101920.38
2019-02-24T06:00:45.668Z,101921.77
2019-02-24T06:03:14.795Z,101931.16
2019-02-24T06:05:43.919Z,101936.77
2019-02-24T06:08:13.070Z,101933.68
2019-02-24T06:10:42.185Z,101935.16
2019-02-24T06:13:11.336Z,101936.11
2019-02-24T06:15:40.463Z,101927.16
2019-02-24T06:18:09.607Z,101931.25
2019-02-24T06:20:38.755Z,101934.61
2019-02-24T06:23:07.884Z,101935.53
2019-02-24T06:25:37.025Z,101938.46
2019-02-24T06:28:06.142Z,101947.32
2019-02-24T06:30:35.274Z,101950.60
2019-02-24T06:33:04.390Z,101949.28
2019-02-24T06:35:33.532Z,101951.92
2019-02-24T06:38:04.287Z,101961.28
2019-02-24T06:40:33.444Z,101964.08
2019-02-24T06:43:02.565Z,101954.80
2019-02-24T06:45:31.714Z,101951.55
2019-02-24T06:48:00.849Z,101960.05
2019-02-24T06:50:35.320Z,101955.23
2019-02-24T06:53:02.490Z,101950.69
2019-02-24T06:55:31.641Z,101952.73
2019-02-24T06:58:00.769Z,101950.00
2019-02-24T07:00:29.946Z,101953.31
2019-02-24T07:02:59.134Z,101946.44
2019-02-24T07:05:28.280Z,101943.73
2019-02-24T07:07:57.390Z,101940.20
2019-02-24T07:10:26.609Z,101925.09
2019-02-24T07:12:55.723Z,101921.44
2019-02-24T07:15:24.855Z,101919.30
2019-02-24T07:17:54.013Z,101904.87
2019-02-24T07:20:24.812Z,101898.41
2019-02-24T07:22:54.012Z,101913.73
2019-02-24T07:25:23.127Z,101912.25
2019-02-24T07:27:52.270Z,101914.63
2019-02-24T07:30:23.736Z,101917.09
2019-02-24T07:32:52.300Z,101926.31
2019-02-24T07:35:21.482Z,101932.50
2019-02-24T07:37:50.633Z,101936.29
2019-02-24T07:40:19.754Z,101938.34
2019-02-24T07:42:48.933Z,101938.85
2019-02-24T07:45:18.047Z,101938.06
2019-02-24T07:47:47.169Z,101935.47
2019-02-24T07:50:16.300Z,101933.28
2019-02-24T07:52:45.457Z,101927.86
2019-02-24T07:55:14.684Z,101932.77
2019-02-24T07:57:43.812Z,101938.47
2019-02-24T08:00:13.016Z,101940.11
2019-02-24T08:02:42.182Z,101941.67
2019-02-24T08:05:11.320Z,101942.62
2019-02-24T08:07:40.484Z,101943.09
2019-02-24T08:10:09.617Z,101938.48
2019-02-24T08:12:38.758Z,101936.02
2019-02-24T08:15:09.798Z,101939.80
2019-02-24T08:17:38.919Z,101940.45
2019-02-24T08:20:09.793Z,101944.51
2019-02-24T08:22:38.961Z,101946.59
2019-02-24T08:25:08.567Z,101941.20
2019-02-24T08:27:37.690Z,101946.69
2019-02-24T08:30:11.296Z,101948.89
2019-02-24T08:32:40.463Z,101942.83
2019-02-24T08:35:09.609Z,101943.42
2019-02-24T08:37:38.725Z,101950.53
2019-02-24T08:40:09.041Z,101950.50
2019-02-24T08:42:38.179Z,101952.39
2019-02-24T08:45:10.821Z,101946.81
2019-02-24T08:47:39.921Z,101948.28
2019-02-24T08:50:10.917Z,101949.08
2019-02-24T08:52:40.092Z,101940.84
2019-02-24T08:55:09.274Z,101956.59
2019-02-24T08:57:38.398Z,101950.58
2019-02-24T09:00:16.054Z,101942.13
2019-02-24T09:02:45.995Z,101940.73
2019-02-24T09:05:15.794Z,101935.30
2019-02-24T09:07:44.932Z,101925.69
2019-02-24T09:10:14.066Z,101929.80
2019-02-24T09:12:43.195Z,101931.27
2019-02-24T09:15:14.151Z,101936.15
2019-02-24T09:17:43.289Z,101938.16
2019-02-24T09:20:13.548Z,101940.61
2019-02-24T09:22:42.683Z,101945.10
2019-02-24T09:25:11.912Z,101945.05
2019-02-24T09:27:41.052Z,101953.74
2019-02-24T09:30:14.547Z,101951.83
2019-02-24T09:32:43.667Z,101949.32
2019-02-24T09:35:12.790Z,101949.75
2019-02-24T09:37:44.346Z,101953.28
2019-02-24T09:40:13.842Z,101962.37
2019-02-24T09:42:43.002Z,101962.14
2019-02-24T09:45:13.325Z,101962.41
2019-02-24T09:47:46.835Z,101966.00
2019-02-24T09:50:13.393Z,101968.09
2019-02-24T09:52:42.545Z,101972.70
2019-02-24T09:55:11.706Z,101969.42
2019-02-24T09:57:40.871Z,101973.51
2019-02-24T10:00:17.247Z,101977.33
2019-02-24T10:02:46.418Z,101972.81
2019-02-24T10:05:15.575Z,101969.11
2019-02-24T10:07:46.379Z,101963.48
2019-02-24T10:10:15.521Z,101966.91
2019-02-24T10:12:44.714Z,101963.23
2019-02-24T10:15:16.818Z,101965.87
2019-02-24T10:17:46.063Z,101968.13
2019-02-24T10:20:15.203Z,101965.20
2019-02-24T10:22:46.072Z,101956.72
2019-02-24T10:25:15.212Z,101959.78
2019-02-24T10:27:44.356Z,101962.84
2019-02-24T10:30:19.579Z,101964.15
2019-02-24T10:32:48.733Z,101967.41
2019-02-24T10:35:17.877Z,101966.73
2019-02-24T10:37:47.031Z,101965.41
2019-02-24T10:40:17.203Z,101968.67
2019-02-24T10:42:46.354Z,101967.31
2019-02-24T10:45:18.028Z,101969.39
2019-02-24T10:47:47.158Z,101961.87
2019-02-24T10:50:17.506Z,101960.05
2019-02-24T10:52:46.649Z,101952.19
2019-02-24T10:55:15.876Z,101943.70
2019-02-24T10:57:45.008Z,101948.52
2019-02-24T11:00:19.965Z,101950.17
2019-02-24T11:02:49.088Z,101947.86
2019-02-24T11:05:18.263Z,101950.30
2019-02-24T11:07:47.419Z,101948.30
2019-02-24T11:10:16.601Z,101951.72
2019-02-24T11:12:45.715Z,101952.52
2019-02-24T11:15:16.534Z,101952.61
2019-02-24T11:17:45.772Z,101946.28
2019-02-24T11:20:17.881Z,101947.43
2019-02-24T11:22:47.009Z,101935.81
2019-02-24T11:25:16.165Z,101926.44
2019-02-24T11:27:45.317Z,101926.08
2019-02-24T11:30:15.382Z,101927.66
2019-02-24T11:32:44.590Z,101929.58
2019-02-24T11:35:14.134Z,101925.98
2019-02-24T11:37:43.272Z,101934.56
2019-02-24T11:40:15.322Z,101927.23
2019-02-24T11:42:44.484Z,101922.52
2019-02-24T11:45:13.625Z,101918.39
2019-02-24T11:47:42.795Z,101910.07
2019-02-24T11:50:12.921Z,101911.73
2019-02-24T11:52:42.076Z,101911.64
2019-02-24T11:55:11.583Z,101908.00
2019-02-24T11:57:40.727Z,101902.38
2019-02-24T12:00:15.264Z,101897.02
2019-02-24T12:02:44.424Z,101895.33
2019-02-24T12:05:13.570Z,101892.59
2019-02-24T12:07:42.748Z,101890.95
2019-02-24T12:10:13.097Z,101890.42
2019-02-24T12:12:42.274Z,101888.86
2019-02-24T12:15:15.375Z,101889.47
2019-02-24T12:17:44.526Z,101882.09
2019-02-24T12:20:14.866Z,101882.01
2019-02-24T12:22:44.008Z,101879.47
2019-02-24T12:25:13.152Z,101880.00
2019-02-24T12:27:42.296Z,101881.72
2019-02-24T12:30:14.717Z,101889.19
2019-02-24T12:32:43.851Z,101887.66
2019-02-24T12:35:13.024Z,101889.10
2019-02-24T12:37:42.156Z,101885.53
2019-02-24T12:40:13.618Z,101877.98
2019-02-24T12:42:42.768Z,101874.29
2019-02-24T12:45:12.610Z,101877.69
2019-02-24T12:47:41.739Z,101874.41
2019-02-24T12:50:18.822Z,101873.58
2019-02-24T12:52:47.976Z,101865.78
2019-02-24T12:55:17.117Z,101864.14
2019-02-24T12:57:46.255Z,101864.38
2019-02-24T13:00:26.870Z,101854.91
2019-02-24T13:02:56.425Z,101840.71
2019-02-24T13:05:28.429Z,101846.08
2019-02-24T13:07:57.555Z,101844.59
2019-02-24T13:10:26.717Z,101846.72
2019-02-24T13:12:55.870Z,101836.78
2019-02-24T13:15:25.032Z,101839.61
2019-02-24T13:17:54.175Z,101842.34
2019-02-24T13:20:23.338Z,101837.83
2019-02-24T13:22:52.470Z,101838.44
2019-02-24T13:25:21.625Z,101846.34
2019-02-24T13:27:50.775Z,101838.09
2019-02-24T13:30:19.935Z,101835.53
2019-02-24T13:32:49.076Z,101839.93
2019-02-24T13:35:18.260Z,101839.95
2019-02-24T13:37:47.451Z,101844.34
2019-02-24T13:40:17.437Z,101843.36
2019-02-24T13:42:46.609Z,101844.50
2019-02-24T13:45:20.706Z,101842.23
2019-02-24T13:47:49.874Z,101845.80
2019-02-24T13:50:18.993Z,101841.42
2019-02-24T13:52:48.185Z,101845.34
2019-02-24T13:55:17.302Z,101840.50
2019-02-24T13:57:46.467Z,101840.30
2019-02-24T14:00:20.660Z,101844.08
2019-02-24T14:02:49.888Z,101846.05
2019-02-24T14:05:19.080Z,101850.28
2019-02-24T14:07:48.258Z,101852.86
2019-02-24T14:10:17.388Z,101846.41
2019-02-24T14:12:46.571Z,101846.04
2019-02-24T14:15:16.360Z,101850.42
2019-02-24T14:17:45.640Z,101846.14
2019-02-24T14:20:18.770Z,101847.95
2019-02-24T14:22:48.007Z,101848.28
2019-02-24T14:25:17.841Z,101842.72
2019-02-24T14:27:46.977Z,101833.86
2019-02-24T14:30:19.483Z,101839.44
2019-02-24T14:32:48.683Z,101845.08
2019-02-24T14:35:24.494Z,101845.83
2019-02-24T14:37:53.679Z,101841.12
2019-02-24T14:40:22.803Z,101840.27
2019-02-24T14:42:51.942Z,101833.87
2019-02-24T14:45:25.368Z,101828.36
2019-02-24T14:47:54.508Z,101824.14
2019-02-24T14:50:23.739Z,101817.25
2019-02-24T14:52:52.872Z,101813.70
2019-02-24T14:55:21.998Z,101814.30
2019-02-24T14:57:51.181Z,101807.78
2019-02-24T15:00:25.040Z,101813.03
2019-02-24T15:02:54.295Z,101808.86
2019-02-24T15:05:23.419Z,101812.84
2019-02-24T15:07:52.569Z,101812.42
2019-02-24T15:10:26.156Z,101805.92
2019-02-24T15:12:55.302Z,101805.99
2019-02-24T15:15:33.083Z,101805.24
2019-02-24T15:17:59.286Z,101797.78
2019-02-24T15:20:28.444Z,101806.48
2019-02-24T15:22:59.202Z,101804.16
2019-02-24T15:25:30.056Z,101801.58
2019-02-24T15:27:59.297Z,101802.77
2019-02-24T15:30:32.506Z,101804.80
2019-02-24T15:33:01.679Z,101802.77
2019-02-24T15:35:30.851Z,101804.33
2019-02-24T15:37:59.990Z,101807.86
2019-02-24T15:40:29.135Z,101805.94
2019-02-24T15:42:58.344Z,101809.45
2019-02-24T15:45:27.749Z,101802.59
2019-02-24T15:47:56.886Z,101807.55
2019-02-24T15:50:26.092Z,101820.27
2019-02-24T15:52:55.249Z,101816.11
2019-02-24T15:55:24.415Z,101816.55
2019-02-24T15:57:53.559Z,101813.31
2019-02-24T16:00:24.618Z,101812.94
2019-02-24T16:03:00.921Z,101808.83
2019-02-24T16:05:24.666Z,101811.52
2019-02-24T16:07:53.805Z,101814.30
2019-02-24T16:10:23.495Z,101809.92
2019-02-24T16:12:52.641Z,101812.63
2019-02-24T16:15:25.389Z,101817.33
2019-02-24T16:17:54.551Z,101822.81
2019-02-24T16:20:32.121Z,101826.53
2019-02-24T16:23:01.292Z,101819.45
2019-02-24T16:25:30.440Z,101820.28
2019-02-24T16:27:59.623Z,101820.38
2019-02-24T16:30:28.758Z,101814.09
2019-02-24T16:32:57.937Z,101815.61
2019-02-24T16:35:27.110Z,101820.09
2019-02-24T16:37:56.307Z,101828.78
2019-02-24T16:40:29.396Z,101832.43
2019-02-24T16:42:58.572Z,101840.54
2019-02-24T16:45:27.732Z,101844.97
2019-02-24T16:47:56.920Z,101849.97
2019-02-24T16:50:26.102Z,101848.25
2019-02-24T16:52:58.261Z,101846.13
2019-02-24T16:55:27.418Z,101852.70
2019-02-24T16:57:56.663Z,101857.06
2019-02-24T17:00:28.875Z,101854.75
2019-02-24T17:02:58.027Z,101856.64
2019-02-24T17:05:27.341Z,101858.13
2019-02-24T17:07:56.485Z,101864.77
2019-02-24T17:10:29.988Z,101861.45
2019-02-24T17:12:59.130Z,101861.98
2019-02-24T17:15:28.310Z,101866.55
2019-02-24T17:17:57.485Z,101880.38
2019-02-24T17:20:31.273Z,101888.58
2019-02-24T17:23:02.056Z,101889.81
2019-02-24T17:25:31.233Z,101898.58
2019-02-24T17:28:00.381Z,101901.09
2019-02-24T17:30:29.543Z,101899.19
2019-02-24T17:32:58.748Z,101895.69
2019-02-24T17:35:27.941Z,101893.73
2019-02-24T17:37:57.069Z,101893.08
2019-02-24T17:40:26.247Z,101896.99
2019-02-24T17:42:55.374Z,101894.99
2019-02-24T17:45:24.546Z,101891.34
2019-02-24T17:47:53.691Z,101897.71
2019-02-24T17:50:22.910Z,101903.02
2019-02-24T17:52:52.717Z,101905.60
2019-02-24T17:55:21.878Z,101913.33
2019-02-24T17:57:51.039Z,101915.30
2019-02-24T18:00:32.998Z,101919.23
2019-02-24T18:03:02.212Z,101917.39
2019-02-24T18:05:31.503Z,101915.58
2019-02-24T18:08:00.722Z,101915.55
2019-02-24T18:10:29.898Z,101909.69
2019-02-24T18:12:59.061Z,101913.91
2019-02-24T18:15:28.254Z,101916.90
2019-02-24T18:17:57.382Z,101920.45
2019-02-24T18:20:26.577Z,101924.14
2019-02-24T18:22:55.768Z,101923.20
2019-02-24T18:25:24.943Z,101925.11
2019-02-24T18:27:54.118Z,101925.92
2019-02-24T18:30:26.460Z,101930.20
2019-02-24T18:32:55.626Z,101927.00
2019-02-24T18:35:24.781Z,101928.27
2019-02-24T18:37:53.975Z,101925.50
2019-02-24T18:40:23.365Z,101927.59
2019-02-24T18:42:59.674Z,101922.05
2019-02-24T18:45:23.430Z,101926.23
2019-02-24T18:47:52.606Z,101922.98
2019-02-24T18:50:21.750Z,101934.25
2019-02-24T18:52:50.910Z,101934.73
2019-02-24T18:55:20.112Z,101925.88
2019-02-24T18:57:49.261Z,101929.48
2019-02-24T19:00:23.077Z,101925.80
2019-02-24T19:02:52.255Z,101926.39
2019-02-24T19:05:21.419Z,101928.86
2019-02-24T19:07:50.671Z,101922.13
2019-02-24T19:10:25.579Z,101921.76
2019-02-24T19:12:54.739Z,101921.09
2019-02-24T19:15:25.110Z,101919.41
2019-02-24T19:17:54.289Z,101919.31
2019-02-24T19:20:24.897Z,101915.93
2019-02-24T19:22:54.058Z,101913.81
2019-02-24T19:25:23.315Z,101908.38
2019-02-24T19:27:52.476Z,101898.26
2019-02-24T19:30:22.293Z,101899.77
2019-02-24T19:32:51.541Z,101906.02
2019-02-24T19:35:20.748Z,101905.28
2019-02-24T19:37:49.893Z,101909.43
2019-02-24T19:40:21.761Z,101908.92
2019-02-24T19:42:50.921Z,101907.07
2019-02-24T19:45:27.587Z,101917.20
2019-02-24T19:47:56.818Z,101910.27
2019-02-24T19:50:28.803Z,101904.27
2019-02-24T19:52:59.637Z,101906.80
2019-02-24T19:55:28.845Z,101907.50
2019-02-24T19:57:58.020Z,101909.73
2019-02-24T20:00:30.248Z,101908.02
2019-02-24T20:02:59.414Z,101907.69
2019-02-24T20:05:28.732Z,101911.27
2019-02-24T20:07:57.940Z,101906.83
2019-02-24T20:10:30.017Z,101909.42
2019-02-24T20:12:59.177Z,101912.74
2019-02-24T20:15:28.515Z,101906.88
2019-02-24T20:17:57.717Z,101910.71
2019-02-24T20:20:29.474Z,101911.34
2019-02-24T20:22:58.638Z,101902.06
2019-02-24T20:25:27.859Z,101909.49
2019-02-24T20:27:57.061Z,101918.39
2019-02-24T20:30:32.760Z,101920.09
2019-02-24T20:33:01.900Z,101919.22
2019-02-24T20:35:31.333Z,101924.94
2019-02-24T20:38:00.590Z,101934.92
2019-02-24T20:40:29.786Z,101942.84
2019-02-24T20:42:58.980Z,101945.17
2019-02-24T20:45:29.376Z,101943.63
2019-02-24T20:47:58.734Z,101947.79
2019-02-24T20:50:35.397Z,101946.70
2019-02-24T20:53:04.747Z,101947.50
2019-02-24T20:55:33.990Z,101952.59
2019-02-24T20:58:03.227Z,101955.48
2019-02-24T21:00:40.060Z,101955.97
2019-02-24T21:03:09.252Z,101966.81
2019-02-24T21:05:38.474Z,101970.80
2019-02-24T21:08:08.127Z,101963.58
2019-02-24T21:10:37.395Z,101978.86
